createdAt,value
2019-05-05T00:01:51.953Z,20.80
2019-05-05T00:04:31.055Z,20.80
2019-05-05T00:06:59.329Z,20.70
2019-05-05T00:09:27.850Z,20.70
2019-05-05T00:12:14.620Z,20.70
2019-05-05T00:14:54.704Z,20.70
2019-05-05T00:17:27.802Z,20.70
2019-05-05T00:19:56.070Z,20.70
2019-05-05T00:22:24.605Z,20.70
2019-05-05T00:24:54.627Z,20.70
2019-05-05T00:27:25.276Z,20.70
2019-05-05T00:29:54.717Z,20.70
2019-05-05T00:32:24.528Z,20.60
2019-05-05T00:34:55.066Z,20.60
2019-05-05T00:37:25.464Z,20.60
2019-05-05T00:39:54.322Z,20.60
2019-05-05T00:42:24.607Z,20.60
2019-05-05T00:44:54.771Z,20.60
2019-05-05T00:47:34.431Z,20.60
2019-05-05T00:50:05.287Z,20.60
2019-05-05T00:52:35.182Z,20.60
2019-05-05T00:55:07.411Z,20.50
2019-05-05T00:57:35.751Z,20.50
2019-05-05T01:00:08.954Z,20.50
2019-05-05T01:02:41.582Z,20.50
2019-05-05T01:05:26.510Z,20.50
2019-05-05T01:07:54.840Z,20.40
2019-05-05T01:10:24.818Z,20.40
2019-05-05T01:12:54.457Z,20.40
2019-05-05T01:15:25.277Z,20.40
2019-05-05T01:17:55.154Z,20.40
2019-05-05T01:20:24.977Z,20.40
2019-05-05T01:22:55.164Z,20.30
2019-05-05T01:25:25.286Z,20.30
2019-05-05T01:27:54.578Z,20.30
2019-05-05T01:30:25.127Z,20.30
2019-05-05T01:33:06.944Z,20.30
2019-05-05T01:35:35.289Z,20.30
2019-05-05T01:38:11.152Z,20.30
2019-05-05T01:40:41.067Z,20.30
2019-05-05T01:43:09.344Z,20.20
2019-05-05T01:45:37.613Z,20.30
2019-05-05T01:48:05.898Z,20.20
2019-05-05T01:50:34.915Z,20.20
2019-05-05T01:53:04.788Z,20.20
2019-05-05T01:55:34.704Z,20.20
2019-05-05T01:58:04.767Z,20.20
2019-05-05T02:00:34.778Z,20.20
2019-05-05T02:03:04.513Z,20.20
2019-05-05T02:05:34.850Z,20.20
2019-05-05T02:08:04.943Z,20.20
2019-05-05T02:10:34.885Z,20.20
2019-05-05T02:13:04.614Z,20.10
2019-05-05T02:15:34.385Z,20.20
2019-05-05T02:18:04.579Z,20.10
2019-05-05T02:20:45.159Z,20.10
2019-05-05T02:23:15.345Z,20.10
2019-05-05T02:25:44.777Z,20.10
2019-05-05T02:28:14.941Z,20.10
2019-05-05T02:31:01.163Z,20.10
2019-05-05T02:33:29.508Z,20.10
2019-05-05T02:35:57.815Z,20.00
2019-05-05T02:38:26.443Z,20.10
2019-05-05T02:40:55.138Z,20.00
2019-05-05T02:43:25.012Z,20.00
2019-05-05T02:46:16.647Z,20.00
2019-05-05T02:48:45.102Z,20.00
2019-05-05T02:51:15.230Z,20.00
2019-05-05T02:53:46.689Z,20.00
2019-05-05T02:56:16.629Z,20.00
2019-05-05T02:58:44.903Z,20.00
2019-05-05T03:01:20.784Z,19.90
2019-05-05T03:03:49.057Z,19.90
2019-05-05T03:06:17.331Z,19.90
2019-05-05T03:08:45.625Z,19.90
2019-05-05T03:11:14.487Z,19.90
2019-05-05T03:13:44.199Z,19.90
2019-05-05T03:16:17.875Z,19.90
2019-05-05T03:18:46.166Z,19.90
2019-05-05T03:21:14.578Z,19.90
2019-05-05T03:23:44.056Z,19.90
2019-05-05T03:26:14.089Z,19.90
2019-05-05T03:28:49.799Z,19.80
2019-05-05T03:31:18.074Z,19.80
2019-05-05T03:33:46.432Z,19.80
2019-05-05T03:36:14.704Z,19.80
2019-05-05T03:38:44.408Z,19.80
2019-05-05T03:41:14.540Z,19.80
2019-05-05T03:44:00.758Z,19.80
2019-05-05T03:46:30.301Z,19.80
2019-05-05T03:48:58.601Z,19.70
2019-05-05T03:51:26.941Z,19.70
2019-05-05T03:53:55.301Z,19.70
2019-05-05T03:56:24.175Z,19.70
2019-05-05T03:58:54.239Z,19.70
2019-05-05T04:01:54.675Z,19.70
2019-05-05T04:04:31.217Z,19.70
2019-05-05T04:07:01.131Z,19.70
2019-05-05T04:09:29.502Z,19.70
2019-05-05T04:11:57.849Z,19.60
2019-05-05T04:14:26.114Z,19.60
2019-05-05T04:16:56.043Z,19.70
2019-05-05T04:19:25.950Z,19.60
2019-05-05T04:21:54.314Z,19.70
2019-05-05T04:24:23.890Z,19.60
2019-05-05T04:26:54.461Z,19.70
2019-05-05T04:29:24.274Z,19.60
2019-05-05T04:31:54.027Z,19.60
2019-05-05T04:34:24.078Z,19.60
2019-05-05T04:36:54.405Z,19.60
2019-05-05T04:39:23.651Z,19.60
2019-05-05T04:41:54.353Z,19.60
2019-05-05T04:44:23.680Z,19.60
2019-05-05T04:46:54.622Z,19.50
2019-05-05T04:49:33.999Z,19.60
2019-05-05T04:52:04.354Z,19.50
2019-05-05T04:54:34.270Z,19.50
2019-05-05T04:57:04.439Z,19.50
2019-05-05T04:59:34.005Z,19.50
2019-05-05T05:02:04.248Z,19.50
2019-05-05T05:04:34.239Z,19.50
2019-05-05T05:07:04.738Z,19.50
2019-05-05T05:09:34.142Z,19.50
2019-05-05T05:12:04.052Z,19.50
2019-05-05T05:14:33.753Z,19.50
2019-05-05T05:17:03.858Z,19.50
2019-05-05T05:19:33.532Z,19.50
2019-05-05T05:22:02.958Z,19.50
2019-05-05T05:24:34.147Z,19.50
2019-05-05T05:27:01.900Z,19.50
2019-05-05T05:29:30.246Z,19.50
2019-05-05T05:31:58.536Z,19.50
2019-05-05T05:34:26.833Z,19.50
2019-05-05T05:36:55.110Z,19.50
2019-05-05T05:39:25.126Z,19.50
2019-05-05T05:41:54.084Z,19.60
2019-05-05T05:44:33.837Z,19.60
2019-05-05T05:47:14.074Z,19.60
2019-05-05T05:49:44.123Z,19.70
2019-05-05T05:52:18.714Z,19.70
2019-05-05T05:54:44.211Z,19.70
2019-05-05T05:57:13.641Z,19.70
2019-05-05T05:59:44.329Z,19.80
2019-05-05T06:02:15.205Z,19.80
2019-05-05T06:04:42.204Z,19.80
2019-05-05T06:07:10.480Z,19.90
2019-05-05T06:09:38.770Z,19.90
2019-05-05T06:12:07.057Z,19.90
2019-05-05T06:14:35.363Z,19.90
2019-05-05T06:17:04.260Z,19.90
2019-05-05T06:19:33.798Z,20.00
2019-05-05T06:22:03.510Z,20.00
2019-05-05T06:24:34.388Z,20.00
2019-05-05T06:27:03.741Z,20.00
2019-05-05T06:29:34.347Z,20.00
2019-05-05T06:32:04.006Z,20.10
2019-05-05T06:34:33.828Z,20.10
2019-05-05T06:37:04.066Z,20.10
2019-05-05T06:39:33.464Z,20.10
2019-05-05T06:42:04.518Z,20.10
2019-05-05T06:44:34.918Z,20.20
2019-05-05T06:47:13.972Z,20.20
2019-05-05T06:49:43.731Z,20.20
2019-05-05T06:52:14.137Z,20.30
2019-05-05T06:54:43.833Z,20.30
2019-05-05T06:57:13.676Z,20.30
2019-05-05T06:59:43.926Z,20.40
2019-05-05T07:02:14.368Z,20.40
2019-05-05T07:04:44.315Z,20.50
2019-05-05T07:07:14.374Z,20.50
2019-05-05T07:09:44.270Z,20.50
2019-05-05T07:12:13.802Z,20.60
2019-05-05T07:14:44.356Z,20.60
2019-05-05T07:17:14.097Z,20.60
2019-05-05T07:19:44.716Z,20.60
2019-05-05T07:22:14.036Z,20.60
2019-05-05T07:24:43.640Z,20.70
2019-05-05T07:27:13.836Z,20.70
2019-05-05T07:29:43.701Z,20.70
2019-05-05T07:32:14.139Z,20.70
2019-05-05T07:34:46.723Z,20.70
2019-05-05T07:37:14.994Z,20.80
2019-05-05T07:39:44.633Z,20.80
2019-05-05T07:42:13.734Z,20.80
2019-05-05T07:44:44.105Z,20.80
2019-05-05T07:47:14.474Z,20.80
2019-05-05T07:49:44.120Z,20.90
2019-05-05T07:52:14.956Z,20.90
2019-05-05T07:54:43.603Z,20.90
2019-05-05T07:57:14.509Z,21.00
2019-05-05T07:59:44.545Z,21.00
2019-05-05T08:02:14.516Z,21.00
2019-05-05T08:04:43.775Z,21.00
2019-05-05T08:07:14.586Z,21.00
2019-05-05T08:09:44.438Z,21.10
2019-05-05T08:12:13.754Z,21.10
2019-05-05T08:14:44.416Z,21.20
2019-05-05T08:17:34.118Z,21.20
2019-05-05T08:20:19.557Z,21.20
2019-05-05T08:22:47.870Z,21.20
2019-05-05T08:25:17.870Z,21.20
2019-05-05T08:27:47.790Z,21.20
2019-05-05T08:30:29.663Z,21.20
2019-05-05T08:32:58.111Z,21.20
2019-05-05T08:35:26.474Z,21.30
2019-05-05T08:37:54.746Z,21.20
2019-05-05T08:40:23.966Z,21.30
2019-05-05T08:42:53.874Z,21.30
2019-05-05T08:45:26.423Z,21.30
2019-05-05T08:47:54.207Z,21.30
2019-05-05T08:50:26.797Z,21.30
2019-05-05T08:52:53.733Z,21.30
2019-05-05T08:55:24.460Z,21.20
2019-05-05T08:57:53.999Z,21.30
2019-05-05T09:00:24.392Z,21.30
2019-05-05T09:02:54.345Z,21.30
2019-05-05T09:05:23.847Z,21.30
2019-05-05T09:07:54.615Z,21.30
2019-05-05T09:10:23.700Z,21.30
2019-05-05T09:12:54.300Z,21.30
2019-05-05T09:15:24.258Z,21.30
2019-05-05T09:17:54.505Z,21.30
2019-05-05T09:20:24.226Z,21.30
2019-05-05T09:22:53.566Z,21.30
2019-05-05T09:25:26.638Z,21.30
2019-05-05T09:27:56.552Z,21.40
2019-05-05T09:30:40.683Z,21.40
2019-05-05T09:33:09.044Z,21.40
2019-05-05T09:35:37.413Z,21.40
2019-05-05T09:38:05.701Z,21.50
2019-05-05T09:40:39.877Z,21.50
2019-05-05T09:43:08.344Z,21.50
2019-05-05T09:45:38.101Z,21.50
2019-05-05T09:48:06.388Z,21.60
2019-05-05T09:50:35.134Z,21.60
2019-05-05T09:53:04.201Z,21.60
2019-05-05T09:55:33.580Z,21.60
2019-05-05T09:58:02.038Z,21.60
2019-05-05T10:00:33.661Z,21.60
2019-05-05T10:03:03.832Z,21.60
2019-05-05T10:05:34.094Z,21.60
2019-05-05T10:08:03.535Z,21.60
2019-05-05T10:10:33.690Z,21.60
2019-05-05T10:13:04.176Z,21.70
2019-05-05T10:15:32.189Z,21.70
2019-05-05T10:18:00.598Z,21.70
2019-05-05T10:20:28.897Z,21.70
2019-05-05T10:22:57.241Z,21.70
2019-05-05T10:25:34.360Z,21.70
2019-05-05T10:28:04.250Z,21.70
2019-05-05T10:30:32.943Z,21.80
2019-05-05T10:33:03.598Z,21.80
2019-05-05T10:35:31.320Z,21.80
2019-05-05T10:37:59.667Z,21.80
2019-05-05T10:40:29.618Z,21.80
2019-05-05T10:42:57.902Z,21.80
2019-05-05T10:45:26.165Z,21.80
2019-05-05T10:47:54.460Z,21.90
2019-05-05T10:50:24.722Z,21.80
2019-05-05T10:52:53.681Z,21.80
2019-05-05T10:55:23.882Z,21.90
2019-05-05T10:57:54.079Z,21.90
2019-05-05T11:00:40.222Z,21.90
2019-05-05T11:03:08.584Z,21.90
2019-05-05T11:05:36.870Z,21.90
2019-05-05T11:08:05.232Z,21.90
2019-05-05T11:10:34.649Z,21.90
2019-05-05T11:13:03.841Z,22.00
2019-05-05T11:15:33.524Z,22.00
2019-05-05T11:18:04.034Z,22.00
2019-05-05T11:20:33.849Z,22.00
2019-05-05T11:23:02.074Z,22.10
2019-05-05T11:25:30.441Z,22.10
2019-05-05T11:28:00.359Z,22.20
2019-05-05T11:30:41.086Z,22.20
2019-05-05T11:33:27.156Z,22.20
2019-05-05T11:36:13.678Z,22.30
2019-05-05T11:38:44.412Z,22.30
2019-05-05T11:41:14.165Z,22.30
2019-05-05T11:43:42.219Z,22.30
2019-05-05T11:46:11.515Z,22.30
2019-05-05T11:48:39.799Z,22.30
2019-05-05T11:51:08.168Z,22.30
2019-05-05T11:53:38.167Z,22.30
2019-05-05T11:56:06.440Z,22.30
2019-05-05T11:58:34.805Z,22.30
2019-05-05T12:01:03.707Z,22.30
2019-05-05T12:03:34.032Z,22.30
2019-05-05T12:06:04.011Z,22.30
2019-05-05T12:08:34.466Z,22.30
2019-05-05T12:11:04.662Z,22.40
2019-05-05T12:13:33.283Z,22.40
2019-05-05T12:16:04.623Z,22.40
2019-05-05T12:18:34.248Z,22.40
2019-05-05T12:21:05.190Z,22.40
2019-05-05T12:23:33.921Z,22.40
2019-05-05T12:26:07.249Z,22.40
2019-05-05T12:28:37.171Z,22.40
2019-05-05T12:31:14.162Z,22.40
2019-05-05T12:33:44.183Z,22.40
2019-05-05T12:36:14.918Z,22.40
2019-05-05T12:38:43.901Z,22.40
2019-05-05T12:41:14.620Z,22.40
2019-05-05T12:43:44.159Z,22.40
2019-05-05T12:46:17.243Z,22.40
2019-05-05T12:48:47.169Z,22.40
2019-05-05T12:51:15.535Z,22.40
2019-05-05T12:53:43.907Z,22.40
2019-05-05T12:56:14.466Z,22.50
2019-05-05T12:58:44.015Z,22.40
2019-05-05T13:01:14.363Z,22.40
2019-05-05T13:03:43.701Z,22.40
2019-05-05T13:06:14.479Z,22.40
2019-05-05T13:08:44.376Z,22.40
2019-05-05T13:11:12.443Z,22.40
2019-05-05T13:13:40.822Z,22.50
2019-05-05T13:16:09.099Z,22.50
2019-05-05T13:18:37.394Z,22.50
2019-05-05T13:21:13.339Z,22.50
2019-05-05T13:23:49.235Z,22.50
2019-05-05T13:26:19.150Z,22.50
2019-05-05T13:28:47.513Z,22.50
2019-05-05T13:31:15.794Z,22.50
2019-05-05T13:33:44.295Z,22.60
2019-05-05T13:36:13.744Z,22.50
2019-05-05T13:38:43.828Z,22.50
2019-05-05T13:41:12.587Z,22.50
2019-05-05T13:43:41.070Z,22.50
2019-05-05T13:46:10.982Z,22.40
2019-05-05T13:48:39.275Z,22.50
2019-05-05T13:51:09.280Z,22.40
2019-05-05T13:53:37.549Z,22.40
2019-05-05T13:56:12.015Z,22.40
2019-05-05T13:58:35.942Z,22.40
2019-05-05T14:01:04.224Z,22.40
2019-05-05T14:03:34.184Z,22.40
2019-05-05T14:06:04.571Z,22.40
2019-05-05T14:08:36.035Z,22.40
2019-05-05T14:11:03.627Z,22.40
2019-05-05T14:13:34.061Z,22.40
2019-05-05T14:16:03.875Z,22.40
2019-05-05T14:18:32.076Z,22.40
2019-05-05T14:21:00.431Z,22.40
2019-05-05T14:23:30.292Z,22.30
2019-05-05T14:25:58.570Z,22.40
2019-05-05T14:28:26.864Z,22.40
2019-05-05T14:30:59.834Z,22.40
2019-05-05T14:33:29.840Z,22.30
2019-05-05T14:35:59.776Z,22.30
2019-05-05T14:38:44.854Z,22.30
2019-05-05T14:41:13.601Z,22.40
2019-05-05T14:43:43.770Z,22.40
2019-05-05T14:46:14.378Z,22.30
2019-05-05T14:48:43.967Z,22.30
2019-05-05T14:51:14.401Z,22.30
2019-05-05T14:53:43.719Z,22.30
2019-05-05T14:56:13.552Z,22.30
2019-05-05T14:58:43.853Z,22.30
2019-05-05T15:01:14.274Z,22.30
2019-05-05T15:03:44.339Z,22.30
2019-05-05T15:06:19.893Z,22.30
2019-05-05T15:08:55.783Z,22.30
2019-05-05T15:11:41.773Z,22.30
2019-05-05T15:14:10.079Z,22.30
2019-05-05T15:16:38.351Z,22.30
2019-05-05T15:19:06.652Z,22.40
2019-05-05T15:21:34.939Z,22.40
2019-05-05T15:24:03.278Z,22.40
2019-05-05T15:26:31.573Z,22.40
2019-05-05T15:29:01.722Z,22.40
2019-05-05T15:31:29.882Z,22.40
2019-05-05T15:33:58.245Z,22.40
2019-05-05T15:36:26.607Z,22.40
2019-05-05T15:38:55.270Z,22.40
2019-05-05T15:41:24.014Z,22.40
2019-05-05T15:43:54.327Z,22.40
2019-05-05T15:46:24.367Z,22.40
2019-05-05T15:48:54.547Z,22.40
2019-05-05T15:51:23.678Z,22.40
2019-05-05T15:53:54.253Z,22.40
2019-05-05T15:56:24.365Z,22.40
2019-05-05T15:58:52.590Z,22.40
2019-05-05T16:01:20.858Z,22.40
2019-05-05T16:03:49.219Z,22.40
2019-05-05T16:06:17.501Z,22.40
2019-05-05T16:08:45.791Z,22.30
2019-05-05T16:11:14.292Z,22.30
2019-05-05T16:13:44.011Z,22.30
2019-05-05T16:16:20.069Z,22.30
2019-05-05T16:19:05.392Z,22.30
2019-05-05T16:21:26.320Z,22.30
2019-05-05T16:23:56.068Z,22.30
2019-05-05T16:26:24.631Z,22.30
2019-05-05T16:28:55.188Z,22.30
2019-05-05T16:31:23.647Z,22.30
2019-05-05T16:33:52.390Z,22.30
2019-05-05T16:36:20.673Z,22.30
2019-05-05T16:38:49.031Z,22.30
2019-05-05T16:41:17.321Z,22.30
2019-05-05T16:43:45.589Z,22.30
2019-05-05T16:46:16.709Z,22.30
2019-05-05T16:48:44.065Z,22.20
2019-05-05T16:51:14.050Z,22.20
2019-05-05T16:53:42.630Z,22.20
2019-05-05T16:56:13.956Z,22.20
2019-05-05T16:58:44.893Z,22.20
2019-05-05T17:01:14.683Z,22.20
2019-05-05T17:03:45.388Z,22.20
2019-05-05T17:06:14.033Z,22.20
2019-05-05T17:08:44.483Z,22.20
2019-05-05T17:11:14.785Z,22.30
2019-05-05T17:13:44.563Z,22.20
2019-05-05T17:16:17.142Z,22.30
2019-05-05T17:18:47.065Z,22.30
2019-05-05T17:21:16.997Z,22.30
2019-05-05T17:23:45.365Z,22.30
2019-05-05T17:26:14.251Z,22.30
2019-05-05T17:28:44.396Z,22.30
2019-05-05T17:31:13.061Z,22.30
2019-05-05T17:33:41.378Z,22.30
2019-05-05T17:36:09.658Z,22.30
2019-05-05T17:38:37.929Z,22.40
2019-05-05T17:41:20.011Z,22.40
2019-05-05T17:43:50.002Z,22.40
2019-05-05T17:46:33.610Z,22.40
2019-05-05T17:49:04.668Z,22.40
2019-05-05T17:51:35.074Z,22.40
2019-05-05T17:54:24.213Z,22.40
2019-05-05T17:56:55.036Z,22.40
2019-05-05T17:59:23.673Z,22.40
2019-05-05T18:01:53.835Z,22.40
2019-05-05T18:04:22.152Z,22.40
2019-05-05T18:06:54.888Z,22.40
2019-05-05T18:09:40.902Z,22.40
2019-05-05T18:12:13.971Z,22.40
2019-05-05T18:14:44.375Z,22.40
2019-05-05T18:17:13.684Z,22.40
2019-05-05T18:19:43.570Z,22.40
2019-05-05T18:22:13.891Z,22.30
2019-05-05T18:24:42.158Z,22.30
2019-05-05T18:27:10.466Z,22.30
2019-05-05T18:29:38.750Z,22.30
2019-05-05T18:32:07.033Z,22.30
2019-05-05T18:34:35.323Z,22.30
2019-05-05T18:37:03.808Z,22.20
2019-05-05T18:39:34.256Z,22.20
2019-05-05T18:42:16.362Z,22.20
2019-05-05T18:44:55.111Z,22.20
2019-05-05T18:47:25.093Z,22.20
2019-05-05T18:49:53.958Z,22.10
2019-05-05T18:52:24.559Z,22.10
2019-05-05T18:54:54.428Z,22.10
2019-05-05T18:57:24.709Z,22.10
2019-05-05T18:59:54.266Z,22.10
2019-05-05T19:02:24.896Z,22.10
2019-05-05T19:04:54.814Z,22.10
2019-05-05T19:07:36.611Z,22.10
2019-05-05T19:10:07.129Z,22.00
2019-05-05T19:12:35.503Z,22.00
2019-05-05T19:15:05.946Z,22.00
2019-05-05T19:17:34.581Z,22.00
2019-05-05T19:20:06.274Z,22.00
2019-05-05T19:22:36.143Z,22.00
2019-05-05T19:25:14.936Z,22.00
2019-05-05T19:27:47.477Z,22.00
2019-05-05T19:30:16.292Z,21.90
2019-05-05T19:32:44.594Z,21.90
2019-05-05T19:35:12.934Z,21.90
2019-05-05T19:37:41.233Z,21.90
2019-05-05T19:40:09.579Z,21.90
2019-05-05T19:42:37.873Z,21.90
2019-05-05T19:45:08.012Z,21.90
2019-05-05T19:47:36.362Z,21.90
2019-05-05T19:50:09.597Z,21.90
2019-05-05T19:52:37.890Z,21.90
2019-05-05T19:55:07.026Z,21.80
2019-05-05T19:57:36.115Z,21.80
2019-05-05T20:00:06.171Z,21.80
2019-05-05T20:02:34.487Z,21.80
2019-05-05T20:05:04.271Z,21.80
2019-05-05T20:07:32.908Z,21.80
2019-05-05T20:10:01.215Z,21.80
2019-05-05T20:12:29.488Z,21.70
2019-05-05T20:14:59.063Z,21.80
2019-05-05T20:17:33.576Z,21.70
2019-05-05T20:20:01.686Z,21.70
2019-05-05T20:22:30.041Z,21.70
2019-05-05T20:24:58.325Z,21.70
2019-05-05T20:27:26.684Z,21.70
2019-05-05T20:29:55.013Z,21.70
2019-05-05T20:32:24.961Z,21.70
2019-05-05T20:34:54.950Z,21.70
2019-05-05T20:37:27.461Z,21.70
2019-05-05T20:39:56.702Z,21.70
2019-05-05T20:42:25.002Z,21.70
2019-05-05T20:44:54.451Z,21.60
2019-05-05T20:47:23.713Z,21.70
2019-05-05T20:49:53.885Z,21.70
2019-05-05T20:52:23.693Z,21.60
2019-05-05T20:54:53.755Z,21.60
2019-05-05T20:57:22.271Z,21.60
2019-05-05T20:59:50.562Z,21.60
2019-05-05T21:02:18.832Z,21.60
2019-05-05T21:04:47.201Z,21.60
2019-05-05T21:07:15.495Z,21.60
2019-05-05T21:09:43.782Z,21.60
2019-05-05T21:12:13.835Z,21.50
2019-05-05T21:14:44.473Z,21.50
2019-05-05T21:17:13.667Z,21.50
2019-05-05T21:19:42.202Z,21.50
2019-05-05T21:22:30.454Z,21.50
2019-05-05T21:24:59.285Z,21.60
2019-05-05T21:27:27.555Z,21.50
2019-05-05T21:29:55.856Z,21.50
2019-05-05T21:32:25.385Z,21.40
2019-05-05T21:34:54.081Z,21.40
2019-05-05T21:37:22.375Z,21.50
2019-05-05T21:39:50.676Z,21.40
2019-05-05T21:42:19.027Z,21.40
2019-05-05T21:44:47.308Z,21.40
2019-05-05T21:47:15.613Z,21.40
2019-05-05T21:49:43.951Z,21.40
2019-05-05T21:52:14.337Z,21.40
2019-05-05T21:54:44.357Z,21.40
2019-05-05T21:57:20.054Z,21.40
2019-05-05T21:59:55.723Z,21.30
2019-05-05T22:02:18.423Z,21.30
2019-05-05T22:04:46.707Z,21.30
2019-05-05T22:07:14.993Z,21.30
2019-05-05T22:09:43.278Z,21.30
2019-05-05T22:12:13.403Z,21.30
2019-05-05T22:14:43.410Z,21.20
2019-05-05T22:17:11.610Z,21.20
2019-05-05T22:19:54.166Z,21.20
2019-05-05T22:22:24.531Z,21.20
2019-05-05T22:24:54.059Z,21.20
2019-05-05T22:27:23.795Z,21.20
2019-05-05T22:29:54.105Z,21.20
2019-05-05T22:32:24.792Z,21.20
2019-05-05T22:34:52.414Z,21.10
2019-05-05T22:37:20.679Z,21.10
2019-05-05T22:39:48.974Z,21.10
2019-05-05T22:42:17.248Z,21.10
2019-05-05T22:44:45.543Z,21.10
2019-05-05T22:47:13.993Z,21.00
2019-05-05T22:49:44.199Z,21.10
2019-05-05T22:52:14.324Z,21.00
2019-05-05T22:54:44.279Z,21.00
2019-05-05T22:57:14.002Z,21.00
2019-05-05T23:00:25.289Z,21.00
2019-05-05T23:02:44.099Z,21.00
2019-05-05T23:05:17.168Z,21.00
2019-05-05T23:07:45.438Z,20.90
2019-05-05T23:10:14.124Z,20.90
2019-05-05T23:12:43.970Z,20.90
2019-05-05T23:15:14.415Z,20.90
2019-05-05T23:17:44.050Z,20.90
2019-05-05T23:20:24.616Z,20.90
2019-05-05T23:22:58.154Z,20.90
2019-05-05T23:25:28.057Z,20.80
2019-05-05T23:27:56.342Z,20.80
2019-05-05T23:30:38.642Z,20.80
2019-05-05T23:32:55.281Z,20.80
2019-05-05T23:35:24.069Z,20.80
2019-05-05T23:37:52.601Z,20.80
2019-05-05T23:40:24.487Z,20.80
2019-05-05T23:42:54.134Z,20.80
2019-05-05T23:45:24.650Z,20.70
2019-05-05T23:47:54.526Z,20.70
2019-05-05T23:50:23.134Z,20.70
2019-05-05T23:52:51.439Z,20.70
2019-05-05T23:55:19.785Z,20.70
2019-05-05T23:57:48.128Z,20.70
